Rechercher aéroport 
image banner adimage banner adimage banner ad
image banner ad

CA70 - Sun Hill Ranch

Situé à Helendale, United States

ICAO - CA70, IATA -

Données fournies par Airmate  

Information générale

Coordonnées: N34°45'29" W117°29'48"
Élévation : 50 feet MSL.
Variation magnétique : 14° East
Voir autres Aéroports à California

Données opérationnelles

Special qualification required
Heure actuelle UTC:
Heure actuelle locale:
METAR: KVCV 262245Z AUTO 12006KT 10SM CLR 30/14 A3001
Voir NOTAMs / SUP AIP / TFR affectant cet aéroport [VIEW]
Fréquences de communication: [VIEW]

Pistes:

Identifiant RWYQFULongueur (ft)Largeur (ft)SurfaceLDA (ft)
07530090EARTH
25530090EARTH
12380080EARTH
30380080EARTH

Coordonnées de l'aéroport

Adresse: Helendale United States

Vue satellite de CA70